sensor_id;sensor_type;location;lat;lon;timestamp;temperature;humidity
43143;DHT22;28750;59.842;17.584;2023-04-15T00:00:41;2.40;1.00
43143;DHT22;28750;59.842;17.584;2023-04-15T00:03:08;2.30;1.00
43143;DHT22;28750;59.842;17.584;2023-04-15T00:05:35;2.20;1.00
43143;DHT22;28750;59.842;17.584;2023-04-15T00:08:02;2.10;99.90
43143;DHT22;28750;59.842;17.584;2023-04-15T00:10:29;2.20;99.90
43143;DHT22;28750;59.842;17.584;2023-04-15T00:12:56;2.10;99.90
43143;DHT22;28750;59.842;17.584;2023-04-15T00:15:23;2.00;99.90
43143;DHT22;28750;59.842;17.584;2023-04-15T00:17:50;1.90;1.00
43143;DHT22;28750;59.842;17.584;2023-04-15T00:20:17;1.80;99.90
43143;DHT22;28750;59.842;17.584;2023-04-15T00:22:44;1.90;99.90
43143;DHT22;28750;59.842;17.584;2023-04-15T00:25:11;1.80;99.90
43143;DHT22;28750;59.842;17.584;2023-04-15T00:27:39;2.00;99.90
43143;DHT22;28750;59.842;17.584;2023-04-15T00:30:07;2.00;99.90
43143;DHT22;28750;59.842;17.584;2023-04-15T00:32:34;2.00;99.90
43143;DHT22;28750;59.842;17.584;2023-04-15T00:35:01;2.10;20.00
43143;DHT22;28750;59.842;17.584;2023-04-15T00:37:28;2.00;1.00
43143;DHT22;28750;59.842;17.584;2023-04-15T00:39:55;2.00;1.00
43143;DHT22;28750;59.842;17.584;2023-04-15T00:42:24;2.00;1.00
43143;DHT22;28750;59.842;17.584;2023-04-15T00:44:51;2.00;1.00
43143;DHT22;28750;59.842;17.584;2023-04-15T00:47:18;1.90;25.90
43143;DHT22;28750;59.842;17.584;2023-04-15T00:49:46;1.90;31.20
43143;DHT22;28750;59.842;17.584;2023-04-15T00:52:13;1.80;95.10
43143;DHT22;28750;59.842;17.584;2023-04-15T00:54:40;1.90;99.90
43143;DHT22;28750;59.842;17.584;2023-04-15T00:57:07;1.80;99.90
43143;DHT22;28750;59.842;17.584;2023-04-15T00:59:35;1.80;99.90
43143;DHT22;28750;59.842;17.584;2023-04-15T01:02:02;1.80;99.90
43143;DHT22;28750;59.842;17.584;2023-04-15T01:04:29;1.70;1.00
43143;DHT22;28750;59.842;17.584;2023-04-15T01:06:57;1.70;1.00
43143;DHT22;28750;59.842;17.584;2023-04-15T01:09:23;1.70;1.00
43143;DHT22;28750;59.842;17.584;2023-04-15T01:11:50;1.80;99.90
43143;DHT22;28750;59.842;17.584;2023-04-15T01:14:18;1.70;1.00
43143;DHT22;28750;59.842;17.584;2023-04-15T01:16:45;1.60;99.90
43143;DHT22;28750;59.842;17.584;2023-04-15T01:19:13;1.60;99.90
43143;DHT22;28750;59.842;17.584;2023-04-15T01:21:43;1.70;99.90
43143;DHT22;28750;59.842;17.584;2023-04-15T01:24:12;1.60;99.90
43143;DHT22;28750;59.842;17.584;2023-04-15T01:26:41;1.60;99.90
43143;DHT22;28750;59.842;17.584;2023-04-15T01:29:08;1.50;1.00
43143;DHT22;28750;59.842;17.584;2023-04-15T01:31:35;1.50;49.50
43143;DHT22;28750;59.842;17.584;2023-04-15T01:34:02;1.50;38.80
43143;DHT22;28750;59.842;17.584;2023-04-15T01:36:29;1.50;62.90
43143;DHT22;28750;59.842;17.584;2023-04-15T01:38:56;1.60;1.00
43143;DHT22;28750;59.842;17.584;2023-04-15T01:41:27;1.70;1.00
43143;DHT22;28750;59.842;17.584;2023-04-15T01:43:54;1.70;1.00
43143;DHT22;28750;59.842;17.584;2023-04-15T01:46:22;1.70;1.00
43143;DHT22;28750;59.842;17.584;2023-04-15T01:48:49;1.70;99.90
43143;DHT22;28750;59.842;17.584;2023-04-15T01:51:16;1.60;1.00
43143;DHT22;28750;59.842;17.584;2023-04-15T01:53:43;1.60;1.00
43143;DHT22;28750;59.842;17.584;2023-04-15T01:56:10;1.70;1.00
43143;DHT22;28750;59.842;17.584;2023-04-15T01:58:37;1.60;1.00
43143;DHT22;28750;59.842;17.584;2023-04-15T02:01:04;1.50;43.80
43143;DHT22;28750;59.842;17.584;2023-04-15T02:03:31;1.50;99.90
43143;DHT22;28750;59.842;17.584;2023-04-15T02:05:58;1.50;99.90
43143;DHT22;28750;59.842;17.584;2023-04-15T02:08:25;1.50;99.90
43143;DHT22;28750;59.842;17.584;2023-04-15T02:10:53;1.40;1.00
43143;DHT22;28750;59.842;17.584;2023-04-15T02:13:20;1.50;25.60
43143;DHT22;28750;59.842;17.584;2023-04-15T02:15:50;1.50;1.00
43143;DHT22;28750;59.842;17.584;2023-04-15T02:18:18;1.50;14.30
43143;DHT22;28750;59.842;17.584;2023-04-15T02:20:45;1.30;1.00
43143;DHT22;28750;59.842;17.584;2023-04-15T02:23:12;1.20;39.00
43143;DHT22;28750;59.842;17.584;2023-04-15T02:25:40;1.20;99.90
43143;DHT22;28750;59.842;17.584;2023-04-15T02:28:07;1.20;99.90
43143;DHT22;28750;59.842;17.584;2023-04-15T02:30:34;1.20;99.90
43143;DHT22;28750;59.842;17.584;2023-04-15T02:33:01;1.10;99.90
43143;DHT22;28750;59.842;17.584;2023-04-15T02:35:28;1.30;99.90
43143;DHT22;28750;59.842;17.584;2023-04-15T02:37:55;1.30;99.90
43143;DHT22;28750;59.842;17.584;2023-04-15T02:40:22;1.40;99.90
43143;DHT22;28750;59.842;17.584;2023-04-15T02:42:49;1.30;99.90
43143;DHT22;28750;59.842;17.584;2023-04-15T02:45:16;1.30;99.90
43143;DHT22;28750;59.842;17.584;2023-04-15T02:47:45;1.40;99.90
43143;DHT22;28750;59.842;17.584;2023-04-15T02:50:13;1.20;79.10
43143;DHT22;28750;59.842;17.584;2023-04-15T02:52:41;1.20;99.90
43143;DHT22;28750;59.842;17.584;2023-04-15T02:55:09;1.20;99.90
43143;DHT22;28750;59.842;17.584;2023-04-15T02:57:36;1.10;99.90
43143;DHT22;28750;59.842;17.584;2023-04-15T03:00:04;1.10;99.90
43143;DHT22;28750;59.842;17.584;2023-04-15T03:02:33;1.10;99.90
43143;DHT22;28750;59.842;17.584;2023-04-15T03:05:01;1.20;99.90
43143;DHT22;28750;59.842;17.584;2023-04-15T03:07:28;1.10;99.90
43143;DHT22;28750;59.842;17.584;2023-04-15T03:09:54;1.10;99.90
43143;DHT22;28750;59.842;17.584;2023-04-15T03:12:22;1.10;99.90
43143;DHT22;28750;59.842;17.584;2023-04-15T03:14:49;1.10;99.90
43143;DHT22;28750;59.842;17.584;2023-04-15T03:17:16;1.10;99.90
43143;DHT22;28750;59.842;17.584;2023-04-15T03:19:43;1.20;99.90
43143;DHT22;28750;59.842;17.584;2023-04-15T03:22:10;1.30;99.90
43143;DHT22;28750;59.842;17.584;2023-04-15T03:24:37;1.20;99.90
43143;DHT22;28750;59.842;17.584;2023-04-15T03:27:04;1.20;1.00
43143;DHT22;28750;59.842;17.584;2023-04-15T03:29:32;1.30;1.00
43143;DHT22;28750;59.842;17.584;2023-04-15T03:32:00;1.20;39.30
43143;DHT22;28750;59.842;17.584;2023-04-15T03:34:27;1.20;99.90
43143;DHT22;28750;59.842;17.584;2023-04-15T03:36:54;1.30;99.90
43143;DHT22;28750;59.842;17.584;2023-04-15T03:39:21;1.30;99.90
43143;DHT22;28750;59.842;17.584;2023-04-15T03:41:48;1.30;99.90
43143;DHT22;28750;59.842;17.584;2023-04-15T03:44:15;1.40;99.90
43143;DHT22;28750;59.842;17.584;2023-04-15T03:46:42;1.40;99.90
43143;DHT22;28750;59.842;17.584;2023-04-15T03:49:10;1.50;99.90
43143;DHT22;28750;59.842;17.584;2023-04-15T03:51:37;1.50;99.90
43143;DHT22;28750;59.842;17.584;2023-04-15T03:54:03;1.60;99.90
43143;DHT22;28750;59.842;17.584;2023-04-15T03:56:30;1.60;99.90
43143;DHT22;28750;59.842;17.584;2023-04-15T03:58:57;1.70;99.90
43143;DHT22;28750;59.842;17.584;2023-04-15T04:01:24;1.70;99.90
43143;DHT22;28750;59.842;17.584;2023-04-15T04:03:51;1.70;99.90
43143;DHT22;28750;59.842;17.584;2023-04-15T04:06:19;1.70;99.90
43143;DHT22;28750;59.842;17.584;2023-04-15T04:08:45;1.70;99.90
43143;DHT22;28750;59.842;17.584;2023-04-15T04:11:12;1.80;99.90
43143;DHT22;28750;59.842;17.584;2023-04-15T04:13:39;1.80;99.90
43143;DHT22;28750;59.842;17.584;2023-04-15T04:16:06;1.80;99.90
43143;DHT22;28750;59.842;17.584;2023-04-15T04:18:33;1.80;99.90
43143;DHT22;28750;59.842;17.584;2023-04-15T04:21:00;1.80;99.90
43143;DHT22;28750;59.842;17.584;2023-04-15T04:23:27;1.80;99.90
43143;DHT22;28750;59.842;17.584;2023-04-15T04:25:54;1.80;99.90
43143;DHT22;28750;59.842;17.584;2023-04-15T04:28:21;1.90;99.90
43143;DHT22;28750;59.842;17.584;2023-04-15T04:30:48;1.90;99.90
43143;DHT22;28750;59.842;17.584;2023-04-15T04:33:15;1.90;99.90
43143;DHT22;28750;59.842;17.584;2023-04-15T04:35:42;1.90;99.90
43143;DHT22;28750;59.842;17.584;2023-04-15T04:38:09;2.00;99.90
43143;DHT22;28750;59.842;17.584;2023-04-15T04:40:36;2.00;99.90
43143;DHT22;28750;59.842;17.584;2023-04-15T04:43:03;2.00;99.90
43143;DHT22;28750;59.842;17.584;2023-04-15T04:45:30;2.00;99.90
43143;DHT22;28750;59.842;17.584;2023-04-15T04:47:57;2.10;99.90
43143;DHT22;28750;59.842;17.584;2023-04-15T04:50:24;2.10;99.90
43143;DHT22;28750;59.842;17.584;2023-04-15T04:52:51;2.10;99.90
43143;DHT22;28750;59.842;17.584;2023-04-15T04:55:18;2.20;99.90
43143;DHT22;28750;59.842;17.584;2023-04-15T04:57:45;2.20;99.90
43143;DHT22;28750;59.842;17.584;2023-04-15T05:00:12;2.20;99.90
43143;DHT22;28750;59.842;17.584;2023-04-15T05:02:39;2.30;99.90
43143;DHT22;28750;59.842;17.584;2023-04-15T05:05:09;2.40;99.90
43143;DHT22;28750;59.842;17.584;2023-04-15T05:07:37;2.40;99.90
43143;DHT22;28750;59.842;17.584;2023-04-15T05:10:04;2.50;99.90
43143;DHT22;28750;59.842;17.584;2023-04-15T05:12:31;2.50;99.90
43143;DHT22;28750;59.842;17.584;2023-04-15T05:14:58;2.60;99.90
43143;DHT22;28750;59.842;17.584;2023-04-15T05:17:25;2.60;4.50
43143;DHT22;28750;59.842;17.584;2023-04-15T05:19:52;2.80;1.00
43143;DHT22;28750;59.842;17.584;2023-04-15T05:22:19;3.20;99.90
43143;DHT22;28750;59.842;17.584;2023-04-15T05:24:46;3.70;99.90
43143;DHT22;28750;59.842;17.584;2023-04-15T05:27:13;4.10;1.00
43143;DHT22;28750;59.842;17.584;2023-04-15T05:29:40;4.10;1.00
43143;DHT22;28750;59.842;17.584;2023-04-15T05:32:07;4.30;99.90
43143;DHT22;28750;59.842;17.584;2023-04-15T05:34:34;4.60;99.90
43143;DHT22;28750;59.842;17.584;2023-04-15T05:37:01;5.00;99.90
43143;DHT22;28750;59.842;17.584;2023-04-15T05:39:28;5.20;1.00
43143;DHT22;28750;59.842;17.584;2023-04-15T05:41:57;5.40;99.90
43143;DHT22;28750;59.842;17.584;2023-04-15T05:44:24;5.20;1.00
43143;DHT22;28750;59.842;17.584;2023-04-15T05:46:51;5.60;27.10
43143;DHT22;28750;59.842;17.584;2023-04-15T05:49:18;5.70;99.90
43143;DHT22;28750;59.842;17.584;2023-04-15T05:51:47;5.70;99.90
43143;DHT22;28750;59.842;17.584;2023-04-15T05:54:14;5.40;1.00
43143;DHT22;28750;59.842;17.584;2023-04-15T05:56:41;5.50;1.00
43143;DHT22;28750;59.842;17.584;2023-04-15T05:59:08;5.70;1.00
43143;DHT22;28750;59.842;17.584;2023-04-15T06:01:35;5.80;1.00
43143;DHT22;28750;59.842;17.584;2023-04-15T06:04:02;6.00;99.90
43143;DHT22;28750;59.842;17.584;2023-04-15T06:06:29;5.80;99.90
43143;DHT22;28750;59.842;17.584;2023-04-15T06:08:57;5.80;99.90
43143;DHT22;28750;59.842;17.584;2023-04-15T06:11:24;5.60;99.90
43143;DHT22;28750;59.842;17.584;2023-04-15T06:13:51;5.90;99.90
43143;DHT22;28750;59.842;17.584;2023-04-15T06:16:18;5.80;99.90
43143;DHT22;28750;59.842;17.584;2023-04-15T06:18:45;5.70;99.90
43143;DHT22;28750;59.842;17.584;2023-04-15T06:21:12;5.70;99.90
43143;DHT22;28750;59.842;17.584;2023-04-15T06:23:40;5.80;99.90
43143;DHT22;28750;59.842;17.584;2023-04-15T06:26:07;6.10;99.90
43143;DHT22;28750;59.842;17.584;2023-04-15T06:28:34;6.00;22.40
43143;DHT22;28750;59.842;17.584;2023-04-15T06:31:01;6.00;99.90
43143;DHT22;28750;59.842;17.584;2023-04-15T06:33:28;6.00;99.90
43143;DHT22;28750;59.842;17.584;2023-04-15T06:35:55;6.10;99.90
43143;DHT22;28750;59.842;17.584;2023-04-15T06:38:22;6.20;99.90
43143;DHT22;28750;59.842;17.584;2023-04-15T06:40:49;6.40;99.90
43143;DHT22;28750;59.842;17.584;2023-04-15T06:43:16;6.30;1.00
43143;DHT22;28750;59.842;17.584;2023-04-15T06:45:43;6.40;99.90
43143;DHT22;28750;59.842;17.584;2023-04-15T06:48:10;6.30;99.90
43143;DHT22;28750;59.842;17.584;2023-04-15T06:50:37;6.50;99.10
43143;DHT22;28750;59.842;17.584;2023-04-15T06:53:04;6.70;1.00
43143;DHT22;28750;59.842;17.584;2023-04-15T06:55:31;6.80;1.00
43143;DHT22;28750;59.842;17.584;2023-04-15T06:57:58;6.80;99.90
43143;DHT22;28750;59.842;17.584;2023-04-15T07:00:25;7.00;99.90
43143;DHT22;28750;59.842;17.584;2023-04-15T07:02:53;6.90;99.90
43143;DHT22;28750;59.842;17.584;2023-04-15T07:05:20;7.10;99.90
43143;DHT22;28750;59.842;17.584;2023-04-15T07:07:47;7.10;99.90
43143;DHT22;28750;59.842;17.584;2023-04-15T07:10:14;7.20;99.90
43143;DHT22;28750;59.842;17.584;2023-04-15T07:12:41;7.50;99.90
43143;DHT22;28750;59.842;17.584;2023-04-15T07:15:08;7.50;99.90
43143;DHT22;28750;59.842;17.584;2023-04-15T07:17:35;7.80;99.90
43143;DHT22;28750;59.842;17.584;2023-04-15T07:20:03;8.00;72.20
43143;DHT22;28750;59.842;17.584;2023-04-15T07:22:30;8.10;1.00
43143;DHT22;28750;59.842;17.584;2023-04-15T07:24:57;8.00;1.00
43143;DHT22;28750;59.842;17.584;2023-04-15T07:27:24;8.20;99.90
43143;DHT22;28750;59.842;17.584;2023-04-15T07:29:51;8.70;1.00
43143;DHT22;28750;59.842;17.584;2023-04-15T07:32:19;8.80;99.90
43143;DHT22;28750;59.842;17.584;2023-04-15T07:34:46;8.80;99.90
43143;DHT22;28750;59.842;17.584;2023-04-15T07:37:13;9.20;99.90
43143;DHT22;28750;59.842;17.584;2023-04-15T07:39:40;9.20;99.90
43143;DHT22;28750;59.842;17.584;2023-04-15T07:42:08;9.10;99.90
43143;DHT22;28750;59.842;17.584;2023-04-15T07:44:35;9.20;99.90
43143;DHT22;28750;59.842;17.584;2023-04-15T07:47:02;9.40;99.90
43143;DHT22;28750;59.842;17.584;2023-04-15T07:49:29;9.30;99.90
43143;DHT22;28750;59.842;17.584;2023-04-15T07:51:56;9.40;99.90
43143;DHT22;28750;59.842;17.584;2023-04-15T07:54:24;9.70;99.90
43143;DHT22;28750;59.842;17.584;2023-04-15T07:56:53;9.60;99.90
43143;DHT22;28750;59.842;17.584;2023-04-15T07:59:20;10.00;99.90
43143;DHT22;28750;59.842;17.584;2023-04-15T08:01:47;10.30;97.10
43143;DHT22;28750;59.842;17.584;2023-04-15T08:04:14;10.30;1.00
43143;DHT22;28750;59.842;17.584;2023-04-15T08:06:41;10.20;25.90
43143;DHT22;28750;59.842;17.584;2023-04-15T08:09:08;10.40;19.30
43143;DHT22;28750;59.842;17.584;2023-04-15T08:11:35;10.90;1.00
43143;DHT22;28750;59.842;17.584;2023-04-15T08:14:02;10.60;1.00
43143;DHT22;28750;59.842;17.584;2023-04-15T08:16:29;10.40;1.00
43143;DHT22;28750;59.842;17.584;2023-04-15T08:18:56;11.10;1.00
43143;DHT22;28750;59.842;17.584;2023-04-15T08:21:23;11.40;99.90
43143;DHT22;28750;59.842;17.584;2023-04-15T08:23:52;11.40;99.90
43143;DHT22;28750;59.842;17.584;2023-04-15T08:26:19;11.50;99.90
43143;DHT22;28750;59.842;17.584;2023-04-15T08:28:47;11.10;99.90
43143;DHT22;28750;59.842;17.584;2023-04-15T08:31:14;11.40;99.90
43143;DHT22;28750;59.842;17.584;2023-04-15T08:33:42;11.40;99.90
43143;DHT22;28750;59.842;17.584;2023-04-15T08:36:09;10.90;99.90
43143;DHT22;28750;59.842;17.584;2023-04-15T08:38:36;11.00;99.90
43143;DHT22;28750;59.842;17.584;2023-04-15T08:41:08;10.70;99.90
43143;DHT22;28750;59.842;17.584;2023-04-15T08:43:45;11.20;99.90
43143;DHT22;28750;59.842;17.584;2023-04-15T08:46:13;11.10;99.90
43143;DHT22;28750;59.842;17.584;2023-04-15T08:48:41;11.10;99.90
43143;DHT22;28750;59.842;17.584;2023-04-15T08:51:09;11.40;99.90
43143;DHT22;28750;59.842;17.584;2023-04-15T08:53:36;11.10;99.90
43143;DHT22;28750;59.842;17.584;2023-04-15T08:56:04;11.50;99.90
43143;DHT22;28750;59.842;17.584;2023-04-15T08:58:35;11.50;99.90
43143;DHT22;28750;59.842;17.584;2023-04-15T09:01:02;11.60;99.90
43143;DHT22;28750;59.842;17.584;2023-04-15T09:03:29;11.50;99.90
43143;DHT22;28750;59.842;17.584;2023-04-15T09:05:58;11.30;99.90
43143;DHT22;28750;59.842;17.584;2023-04-15T09:08:26;11.20;99.90
43143;DHT22;28750;59.842;17.584;2023-04-15T09:10:53;11.10;99.90
43143;DHT22;28750;59.842;17.584;2023-04-15T09:13:20;11.70;99.90
43143;DHT22;28750;59.842;17.584;2023-04-15T09:15:47;11.60;99.90
43143;DHT22;28750;59.842;17.584;2023-04-15T09:18:27;11.80;99.90
43143;DHT22;28750;59.842;17.584;2023-04-15T09:20:55;12.30;99.90
43143;DHT22;28750;59.842;17.584;2023-04-15T09:23:22;12.30;99.90
43143;DHT22;28750;59.842;17.584;2023-04-15T09:25:49;12.00;42.90
43143;DHT22;28750;59.842;17.584;2023-04-15T09:28:23;12.30;39.60
43143;DHT22;28750;59.842;17.584;2023-04-15T09:31:00;12.30;82.70
43143;DHT22;28750;59.842;17.584;2023-04-15T09:33:29;12.70;38.20
43143;DHT22;28750;59.842;17.584;2023-04-15T09:36:00;13.00;1.00
43143;DHT22;28750;59.842;17.584;2023-04-15T09:38:28;12.80;23.90
43143;DHT22;28750;59.842;17.584;2023-04-15T09:40:56;13.40;37.90
43143;DHT22;28750;59.842;17.584;2023-04-15T09:43:43;13.60;19.60
43143;DHT22;28750;59.842;17.584;2023-04-15T09:46:11;14.00;1.00
43143;DHT22;28750;59.842;17.584;2023-04-15T09:48:38;13.50;1.00
43143;DHT22;28750;59.842;17.584;2023-04-15T09:51:05;13.50;1.00
43143;DHT22;28750;59.842;17.584;2023-04-15T09:53:35;14.10;1.00
43143;DHT22;28750;59.842;17.584;2023-04-15T09:56:03;14.00;1.00
43143;DHT22;28750;59.842;17.584;2023-04-15T09:58:33;13.80;1.00
43143;DHT22;28750;59.842;17.584;2023-04-15T10:01:03;14.10;1.00
43143;DHT22;28750;59.842;17.584;2023-04-15T10:03:33;14.50;1.00
43143;DHT22;28750;59.842;17.584;2023-04-15T10:06:01;14.30;99.90
43143;DHT22;28750;59.842;17.584;2023-04-15T10:08:31;14.50;99.90
43143;DHT22;28750;59.842;17.584;2023-04-15T10:11:02;14.90;99.90
43143;DHT22;28750;59.842;17.584;2023-04-15T10:13:30;14.70;99.90
43143;DHT22;28750;59.842;17.584;2023-04-15T10:16:11;15.00;99.90
43143;DHT22;28750;59.842;17.584;2023-04-15T10:18:43;14.90;99.90
43143;DHT22;28750;59.842;17.584;2023-04-15T10:21:11;15.10;99.90
43143;DHT22;28750;59.842;17.584;2023-04-15T10:23:46;15.30;99.90
43143;DHT22;28750;59.842;17.584;2023-04-15T10:26:13;15.80;99.90
43143;DHT22;28750;59.842;17.584;2023-04-15T10:28:42;15.50;99.90
43143;DHT22;28750;59.842;17.584;2023-04-15T10:31:12;14.90;99.90
43143;DHT22;28750;59.842;17.584;2023-04-15T10:33:40;15.60;99.90
43143;DHT22;28750;59.842;17.584;2023-04-15T10:36:08;16.00;99.90
43143;DHT22;28750;59.842;17.584;2023-04-15T10:38:41;16.40;99.90
43143;DHT22;28750;59.842;17.584;2023-04-15T10:41:16;16.50;99.90
43143;DHT22;28750;59.842;17.584;2023-04-15T10:44:01;15.50;99.90
43143;DHT22;28750;59.842;17.584;2023-04-15T10:49:14;15.60;99.90
43143;DHT22;28750;59.842;17.584;2023-04-15T10:51:45;16.30;99.90
43143;DHT22;28750;59.842;17.584;2023-04-15T10:54:15;16.60;99.90
43143;DHT22;28750;59.842;17.584;2023-04-15T10:56:44;16.00;99.90
43143;DHT22;28750;59.842;17.584;2023-04-15T10:59:11;16.70;99.90
43143;DHT22;28750;59.842;17.584;2023-04-15T11:02:01;15.90;99.90
43143;DHT22;28750;59.842;17.584;2023-04-15T11:04:57;16.40;99.90
43143;DHT22;28750;59.842;17.584;2023-04-15T11:12:52;16.50;99.90
43143;DHT22;28750;59.842;17.584;2023-04-15T11:15:42;16.80;99.90
43143;DHT22;28750;59.842;17.584;2023-04-15T11:18:15;17.30;99.90
43143;DHT22;28750;59.842;17.584;2023-04-15T11:20:47;16.80;99.90
43143;DHT22;28750;59.842;17.584;2023-04-15T11:23:16;16.70;99.90
43143;DHT22;28750;59.842;17.584;2023-04-15T11:25:44;16.80;99.90
43143;DHT22;28750;59.842;17.584;2023-04-15T11:28:13;16.90;99.90
43143;DHT22;28750;59.842;17.584;2023-04-15T11:30:41;16.80;99.90
43143;DHT22;28750;59.842;17.584;2023-04-15T11:33:10;15.70;51.10
43143;DHT22;28750;59.842;17.584;2023-04-15T11:35:40;16.20;96.00
43143;DHT22;28750;59.842;17.584;2023-04-15T11:38:09;16.20;74.80
43143;DHT22;28750;59.842;17.584;2023-04-15T11:40:36;16.60;59.00
43143;DHT22;28750;59.842;17.584;2023-04-15T11:43:11;16.50;99.40
43143;DHT22;28750;59.842;17.584;2023-04-15T11:45:57;16.40;97.00
43143;DHT22;28750;59.842;17.584;2023-04-15T11:48:27;16.30;31.40
43143;DHT22;28750;59.842;17.584;2023-04-15T11:51:02;16.70;79.00
43143;DHT22;28750;59.842;17.584;2023-04-15T11:53:43;15.80;57.80
43143;DHT22;28750;59.842;17.584;2023-04-15T11:56:17;16.70;39.80
43143;DHT22;28750;59.842;17.584;2023-04-15T11:58:44;16.40;26.70
43143;DHT22;28750;59.842;17.584;2023-04-15T12:01:11;15.80;27.30
43143;DHT22;28750;59.842;17.584;2023-04-15T12:03:41;15.90;2.50
43143;DHT22;28750;59.842;17.584;2023-04-15T12:06:19;15.50;1.00
43143;DHT22;28750;59.842;17.584;2023-04-15T12:09:02;16.60;55.10
43143;DHT22;28750;59.842;17.584;2023-04-15T12:11:50;16.50;30.10
43143;DHT22;28750;59.842;17.584;2023-04-15T12:14:25;16.20;9.90
43143;DHT22;28750;59.842;17.584;2023-04-15T12:16:56;17.00;49.20
43143;DHT22;28750;59.842;17.584;2023-04-15T12:19:27;16.30;55.20
43143;DHT22;28750;59.842;17.584;2023-04-15T12:22:02;15.70;1.00
43143;DHT22;28750;59.842;17.584;2023-04-15T12:24:31;16.30;44.40
43143;DHT22;28750;59.842;17.584;2023-04-15T12:27:03;16.10;26.80
43143;DHT22;28750;59.842;17.584;2023-04-15T12:29:32;16.20;12.10
43143;DHT22;28750;59.842;17.584;2023-04-15T12:32:08;16.10;24.60
43143;DHT22;28750;59.842;17.584;2023-04-15T12:34:44;16.20;25.20
43143;DHT22;28750;59.842;17.584;2023-04-15T12:37:14;15.90;1.00
43143;DHT22;28750;59.842;17.584;2023-04-15T12:39:43;16.00;22.90
43143;DHT22;28750;59.842;17.584;2023-04-15T12:42:11;16.60;61.60
43143;DHT22;28750;59.842;17.584;2023-04-15T12:44:38;16.40;1.00
43143;DHT22;28750;59.842;17.584;2023-04-15T12:47:06;16.00;42.50
43143;DHT22;28750;59.842;17.584;2023-04-15T12:49:34;15.70;1.00
43143;DHT22;28750;59.842;17.584;2023-04-15T12:52:02;16.40;33.50
43143;DHT22;28750;59.842;17.584;2023-04-15T12:54:30;16.20;1.00
43143;DHT22;28750;59.842;17.584;2023-04-15T12:56:58;16.30;5.60
43143;DHT22;28750;59.842;17.584;2023-04-15T12:59:25;16.80;1.00
43143;DHT22;28750;59.842;17.584;2023-04-15T13:01:52;16.00;1.00
43143;DHT22;28750;59.842;17.584;2023-04-15T13:04:20;16.00;1.00
43143;DHT22;28750;59.842;17.584;2023-04-15T13:06:47;16.60;1.00
43143;DHT22;28750;59.842;17.584;2023-04-15T13:09:14;16.50;1.00
43143;DHT22;28750;59.842;17.584;2023-04-15T13:11:41;15.30;1.00
43143;DHT22;28750;59.842;17.584;2023-04-15T13:14:09;15.60;1.00
43143;DHT22;28750;59.842;17.584;2023-04-15T13:16:37;15.50;1.00
43143;DHT22;28750;59.842;17.584;2023-04-15T13:19:04;16.30;1.00
43143;DHT22;28750;59.842;17.584;2023-04-15T13:21:31;16.10;1.00
43143;DHT22;28750;59.842;17.584;2023-04-15T13:23:59;16.10;1.00
43143;DHT22;28750;59.842;17.584;2023-04-15T13:26:26;15.80;1.00
43143;DHT22;28750;59.842;17.584;2023-04-15T13:28:53;16.00;1.00
43143;DHT22;28750;59.842;17.584;2023-04-15T13:31:20;15.80;1.00
43143;DHT22;28750;59.842;17.584;2023-04-15T13:33:47;15.40;1.00
43143;DHT22;28750;59.842;17.584;2023-04-15T13:36:14;14.90;1.00
43143;DHT22;28750;59.842;17.584;2023-04-15T13:38:41;15.70;1.00
43143;DHT22;28750;59.842;17.584;2023-04-15T13:41:08;15.40;1.00
43143;DHT22;28750;59.842;17.584;2023-04-15T13:43:35;15.80;1.00
43143;DHT22;28750;59.842;17.584;2023-04-15T13:46:02;15.50;1.00
43143;DHT22;28750;59.842;17.584;2023-04-15T13:48:29;14.40;1.00
43143;DHT22;28750;59.842;17.584;2023-04-15T13:50:56;13.90;1.00
43143;DHT22;28750;59.842;17.584;2023-04-15T13:53:23;15.20;1.00
43143;DHT22;28750;59.842;17.584;2023-04-15T13:55:50;15.80;1.00
43143;DHT22;28750;59.842;17.584;2023-04-15T13:58:17;15.70;1.00
43143;DHT22;28750;59.842;17.584;2023-04-15T14:00:44;16.00;1.00
43143;DHT22;28750;59.842;17.584;2023-04-15T14:03:11;15.50;1.00
43143;DHT22;28750;59.842;17.584;2023-04-15T14:05:38;15.00;1.00
43143;DHT22;28750;59.842;17.584;2023-04-15T14:08:05;14.60;1.00
43143;DHT22;28750;59.842;17.584;2023-04-15T14:10:32;15.10;1.00
43143;DHT22;28750;59.842;17.584;2023-04-15T14:12:59;15.30;1.00
43143;DHT22;28750;59.842;17.584;2023-04-15T14:15:25;14.70;1.00
43143;DHT22;28750;59.842;17.584;2023-04-15T14:17:52;15.40;1.00
43143;DHT22;28750;59.842;17.584;2023-04-15T14:20:19;15.20;1.00
43143;DHT22;28750;59.842;17.584;2023-04-15T14:22:46;14.90;1.00
43143;DHT22;28750;59.842;17.584;2023-04-15T14:25:13;14.70;1.00
43143;DHT22;28750;59.842;17.584;2023-04-15T14:27:40;15.80;1.00
43143;DHT22;28750;59.842;17.584;2023-04-15T14:30:08;15.70;1.00
43143;DHT22;28750;59.842;17.584;2023-04-15T14:32:35;14.50;1.00
43143;DHT22;28750;59.842;17.584;2023-04-15T14:35:02;14.10;1.00
43143;DHT22;28750;59.842;17.584;2023-04-15T14:37:29;13.90;1.00
43143;DHT22;28750;59.842;17.584;2023-04-15T14:39:56;13.60;1.00
43143;DHT22;28750;59.842;17.584;2023-04-15T14:42:23;13.50;1.00
43143;DHT22;28750;59.842;17.584;2023-04-15T14:44:50;13.90;1.00
43143;DHT22;28750;59.842;17.584;2023-04-15T14:47:17;13.50;1.00
43143;DHT22;28750;59.842;17.584;2023-04-15T14:49:44;13.00;1.00
43143;DHT22;28750;59.842;17.584;2023-04-15T14:52:11;12.80;1.00
43143;DHT22;28750;59.842;17.584;2023-04-15T14:54:38;12.40;1.00
43143;DHT22;28750;59.842;17.584;2023-04-15T14:57:05;12.30;1.00
43143;DHT22;28750;59.842;17.584;2023-04-15T14:59:33;12.00;1.00
43143;DHT22;28750;59.842;17.584;2023-04-15T15:02:00;12.00;1.00
43143;DHT22;28750;59.842;17.584;2023-04-15T15:04:28;11.80;1.00
43143;DHT22;28750;59.842;17.584;2023-04-15T15:06:57;11.70;1.00
43143;DHT22;28750;59.842;17.584;2023-04-15T15:09:24;11.30;1.00
43143;DHT22;28750;59.842;17.584;2023-04-15T15:11:51;11.20;1.00
43143;DHT22;28750;59.842;17.584;2023-04-15T15:14:18;11.10;1.00
43143;DHT22;28750;59.842;17.584;2023-04-15T15:16:45;11.10;1.00
43143;DHT22;28750;59.842;17.584;2023-04-15T15:19:12;11.10;1.00
43143;DHT22;28750;59.842;17.584;2023-04-15T15:21:39;10.90;1.00
43143;DHT22;28750;59.842;17.584;2023-04-15T15:24:06;10.80;1.00
43143;DHT22;28750;59.842;17.584;2023-04-15T15:26:32;10.70;1.00
43143;DHT22;28750;59.842;17.584;2023-04-15T15:28:59;10.60;1.00
43143;DHT22;28750;59.842;17.584;2023-04-15T15:31:26;10.60;1.00
43143;DHT22;28750;59.842;17.584;2023-04-15T15:33:53;10.70;1.00
43143;DHT22;28750;59.842;17.584;2023-04-15T15:36:20;10.50;1.00
43143;DHT22;28750;59.842;17.584;2023-04-15T15:38:47;10.50;1.00
43143;DHT22;28750;59.842;17.584;2023-04-15T15:41:14;10.50;1.00
43143;DHT22;28750;59.842;17.584;2023-04-15T15:43:41;10.50;1.00